sensor_id;sensor_type;location;lat;lon;timestamp;P1;durP1;ratioP1;P2;durP2;ratioP2
48795;SDS011;34607;48.520;-1.330;2023-09-19T07:37:54;12.30;;;2.95;;
48795;SDS011;34607;48.520;-1.330;2023-09-19T07:40:21;13.50;;;3.42;;
48795;SDS011;34607;48.520;-1.330;2023-09-19T07:42:49;16.23;;;2.75;;
48795;SDS011;34607;48.520;-1.330;2023-09-19T07:45:16;8.65;;;2.97;;
48795;SDS011;34607;48.520;-1.330;2023-09-19T07:47:44;11.35;;;3.67;;
48795;SDS011;34607;48.520;-1.330;2023-09-19T07:50:12;11.57;;;3.35;;
48795;SDS011;34607;48.520;-1.330;2023-09-19T07:52:39;15.50;;;3.30;;
48795;SDS011;34607;48.520;-1.330;2023-09-19T07:55:08;14.15;;;3.47;;
48795;SDS011;34607;48.520;-1.330;2023-09-19T07:57:36;14.10;;;3.53;;
48795;SDS011;34607;48.520;-1.330;2023-09-19T08:00:04;17.10;;;5.07;;
48795;SDS011;34607;48.520;-1.330;2023-09-19T08:02:36;16.40;;;4.05;;
48795;SDS011;34607;48.520;-1.330;2023-09-19T08:05:04;14.63;;;3.10;;
48795;SDS011;34607;48.520;-1.330;2023-09-19T08:07:35;15.98;;;3.47;;
48795;SDS011;34607;48.520;-1.330;2023-09-19T08:10:03;12.93;;;2.78;;
48795;SDS011;34607;48.520;-1.330;2023-09-19T08:12:34;11.57;;;3.00;;
48795;SDS011;34607;48.520;-1.330;2023-09-19T08:15:01;15.52;;;3.00;;
48795;SDS011;34607;48.520;-1.330;2023-09-19T08:17:31;15.02;;;4.32;;
48795;SDS011;34607;48.520;-1.330;2023-09-19T08:20:00;17.02;;;3.50;;
48795;SDS011;34607;48.520;-1.330;2023-09-19T08:22:30;11.85;;;3.30;;
48795;SDS011;34607;48.520;-1.330;2023-09-19T08:24:57;11.38;;;2.78;;
48795;SDS011;34607;48.520;-1.330;2023-09-19T08:27:24;15.13;;;3.13;;
48795;SDS011;34607;48.520;-1.330;2023-09-19T08:29:54;10.65;;;2.90;;
48795;SDS011;34607;48.520;-1.330;2023-09-19T08:32:21;13.23;;;2.63;;
48795;SDS011;34607;48.520;-1.330;2023-09-19T08:34:51;17.60;;;3.08;;
48795;SDS011;34607;48.520;-1.330;2023-09-19T08:37:18;14.23;;;3.22;;
48795;SDS011;34607;48.520;-1.330;2023-09-19T08:39:45;16.50;;;3.00;;
48795;SDS011;34607;48.520;-1.330;2023-09-19T08:42:12;14.57;;;3.17;;
48795;SDS011;34607;48.520;-1.330;2023-09-19T08:44:42;10.98;;;2.72;;
48795;SDS011;34607;48.520;-1.330;2023-09-19T08:47:11;12.13;;;3.90;;
48795;SDS011;34607;48.520;-1.330;2023-09-19T08:49:45;11.68;;;3.25;;
48795;SDS011;34607;48.520;-1.330;2023-09-19T08:52:27;9.85;;;3.05;;
48795;SDS011;34607;48.520;-1.330;2023-09-19T08:54:55;9.75;;;2.55;;
48795;SDS011;34607;48.520;-1.330;2023-09-19T08:57:29;10.32;;;2.75;;
48795;SDS011;34607;48.520;-1.330;2023-09-19T09:00:01;11.52;;;2.88;;
48795;SDS011;34607;48.520;-1.330;2023-09-19T09:02:32;13.00;;;2.63;;
48795;SDS011;34607;48.520;-1.330;2023-09-19T09:05:00;9.73;;;2.90;;
48795;SDS011;34607;48.520;-1.330;2023-09-19T09:07:31;15.25;;;2.95;;
48795;SDS011;34607;48.520;-1.330;2023-09-19T09:10:00;11.60;;;3.10;;
48795;SDS011;34607;48.520;-1.330;2023-09-19T09:12:28;16.20;;;4.15;;
48795;SDS011;34607;48.520;-1.330;2023-09-19T09:14:56;13.80;;;3.17;;
48795;SDS011;34607;48.520;-1.330;2023-09-19T09:17:24;10.38;;;2.70;;
48795;SDS011;34607;48.520;-1.330;2023-09-19T09:19:53;13.30;;;3.08;;
48795;SDS011;34607;48.520;-1.330;2023-09-19T09:22:20;8.13;;;3.47;;
48795;SDS011;34607;48.520;-1.330;2023-09-19T09:24:52;7.78;;;2.50;;
48795;SDS011;34607;48.520;-1.330;2023-09-19T09:29:50;13.05;;;2.97;;
48795;SDS011;34607;48.520;-1.330;2023-09-19T09:32:22;16.00;;;2.83;;
48795;SDS011;34607;48.520;-1.330;2023-09-19T09:34:51;12.65;;;2.97;;
48795;SDS011;34607;48.520;-1.330;2023-09-19T09:37:20;15.63;;;3.50;;
48795;SDS011;34607;48.520;-1.330;2023-09-19T09:39:50;10.88;;;2.80;;
48795;SDS011;34607;48.520;-1.330;2023-09-19T09:42:29;12.40;;;3.15;;
48795;SDS011;34607;48.520;-1.330;2023-09-19T09:45:15;18.35;;;3.00;;
48795;SDS011;34607;48.520;-1.330;2023-09-19T09:47:44;8.13;;;2.58;;
48795;SDS011;34607;48.520;-1.330;2023-09-19T09:50:25;8.18;;;2.63;;
48795;SDS011;34607;48.520;-1.330;2023-09-19T09:53:05;10.20;;;2.58;;
48795;SDS011;34607;48.520;-1.330;2023-09-19T09:56:02;10.52;;;2.83;;
48795;SDS011;34607;48.520;-1.330;2023-09-19T09:58:32;13.75;;;3.45;;
48795;SDS011;34607;48.520;-1.330;2023-09-19T10:01:00;9.77;;;2.63;;
48795;SDS011;34607;48.520;-1.330;2023-09-19T10:03:34;11.40;;;3.50;;
48795;SDS011;34607;48.520;-1.330;2023-09-19T10:06:08;13.88;;;3.50;;
48795;SDS011;34607;48.520;-1.330;2023-09-19T10:11:40;11.50;;;2.58;;
48795;SDS011;34607;48.520;-1.330;2023-09-19T10:14:09;9.30;;;2.95;;
48795;SDS011;34607;48.520;-1.330;2023-09-19T10:16:40;11.00;;;3.42;;
48795;SDS011;34607;48.520;-1.330;2023-09-19T10:19:09;11.57;;;2.97;;
48795;SDS011;34607;48.520;-1.330;2023-09-19T10:21:39;14.73;;;3.53;;
48795;SDS011;34607;48.520;-1.330;2023-09-19T10:24:08;11.77;;;2.92;;
48795;SDS011;34607;48.520;-1.330;2023-09-19T10:26:37;15.75;;;3.40;;
48795;SDS011;34607;48.520;-1.330;2023-09-19T10:29:08;11.50;;;3.47;;
48795;SDS011;34607;48.520;-1.330;2023-09-19T10:31:37;12.13;;;3.15;;
48795;SDS011;34607;48.520;-1.330;2023-09-19T10:34:06;10.80;;;3.45;;
48795;SDS011;34607;48.520;-1.330;2023-09-19T10:36:36;7.55;;;2.95;;
48795;SDS011;34607;48.520;-1.330;2023-09-19T10:39:05;8.80;;;3.00;;
48795;SDS011;34607;48.520;-1.330;2023-09-19T10:41:34;9.57;;;3.33;;
48795;SDS011;34607;48.520;-1.330;2023-09-19T10:44:03;10.90;;;2.80;;
48795;SDS011;34607;48.520;-1.330;2023-09-19T10:46:31;12.93;;;3.42;;
48795;SDS011;34607;48.520;-1.330;2023-09-19T10:48:59;11.75;;;3.28;;
48795;SDS011;34607;48.520;-1.330;2023-09-19T10:51:29;15.98;;;3.15;;
48795;SDS011;34607;48.520;-1.330;2023-09-19T10:54:05;10.45;;;3.10;;
48795;SDS011;34607;48.520;-1.330;2023-09-19T10:56:40;11.13;;;3.20;;
48795;SDS011;34607;48.520;-1.330;2023-09-19T10:59:12;13.05;;;3.63;;
48795;SDS011;34607;48.520;-1.330;2023-09-19T11:01:42;10.13;;;3.75;;
48795;SDS011;34607;48.520;-1.330;2023-09-19T11:04:22;12.10;;;2.75;;
48795;SDS011;34607;48.520;-1.330;2023-09-19T11:07:03;7.65;;;3.13;;
48795;SDS011;34607;48.520;-1.330;2023-09-19T11:09:44;12.15;;;3.20;;
48795;SDS011;34607;48.520;-1.330;2023-09-19T11:12:12;9.43;;;3.40;;
48795;SDS011;34607;48.520;-1.330;2023-09-19T11:24:28;9.55;;;3.05;;
48795;SDS011;34607;48.520;-1.330;2023-09-19T11:27:10;9.50;;;2.75;;
48795;SDS011;34607;48.520;-1.330;2023-09-19T11:29:38;11.85;;;3.45;;
48795;SDS011;34607;48.520;-1.330;2023-09-19T11:32:06;9.07;;;2.53;;
48795;SDS011;34607;48.520;-1.330;2023-09-19T11:34:38;7.03;;;2.65;;
48795;SDS011;34607;48.520;-1.330;2023-09-19T11:40:36;11.27;;;3.85;;
48795;SDS011;34607;48.520;-1.330;2023-09-19T11:46:04;10.05;;;3.22;;
48795;SDS011;34607;48.520;-1.330;2023-09-19T11:48:32;12.05;;;3.22;;
48795;SDS011;34607;48.520;-1.330;2023-09-19T11:51:09;21.17;;;4.72;;
48795;SDS011;34607;48.520;-1.330;2023-09-19T11:53:47;14.27;;;3.72;;
48795;SDS011;34607;48.520;-1.330;2023-09-19T11:56:16;9.02;;;2.88;;
48795;SDS011;34607;48.520;-1.330;2023-09-19T11:58:45;9.73;;;3.50;;
48795;SDS011;34607;48.520;-1.330;2023-09-19T12:01:14;13.30;;;4.03;;
48795;SDS011;34607;48.520;-1.330;2023-09-19T12:03:47;10.73;;;3.72;;
48795;SDS011;34607;48.520;-1.330;2023-09-19T12:06:20;12.50;;;3.80;;
48795;SDS011;34607;48.520;-1.330;2023-09-19T12:08:49;11.02;;;3.40;;
48795;SDS011;34607;48.520;-1.330;2023-09-19T12:11:19;13.32;;;3.60;;
48795;SDS011;34607;48.520;-1.330;2023-09-19T12:13:50;16.48;;;4.05;;
48795;SDS011;34607;48.520;-1.330;2023-09-19T12:16:19;10.57;;;3.78;;
48795;SDS011;34607;48.520;-1.330;2023-09-19T12:18:49;12.18;;;3.97;;
48795;SDS011;34607;48.520;-1.330;2023-09-19T12:21:26;11.52;;;3.65;;
48795;SDS011;34607;48.520;-1.330;2023-09-19T12:24:03;11.73;;;4.10;;
48795;SDS011;34607;48.520;-1.330;2023-09-19T12:26:41;12.88;;;3.70;;
48795;SDS011;34607;48.520;-1.330;2023-09-19T12:29:16;13.07;;;3.50;;
48795;SDS011;34607;48.520;-1.330;2023-09-19T12:31:47;10.23;;;3.53;;
48795;SDS011;34607;48.520;-1.330;2023-09-19T12:34:16;10.98;;;3.65;;
48795;SDS011;34607;48.520;-1.330;2023-09-19T12:36:46;9.95;;;4.57;;
48795;SDS011;34607;48.520;-1.330;2023-09-19T12:39:22;9.50;;;3.22;;
48795;SDS011;34607;48.520;-1.330;2023-09-19T12:41:51;12.70;;;3.38;;
48795;SDS011;34607;48.520;-1.330;2023-09-19T12:44:21;10.18;;;3.58;;
48795;SDS011;34607;48.520;-1.330;2023-09-19T12:46:50;10.63;;;4.38;;
48795;SDS011;34607;48.520;-1.330;2023-09-19T12:49:20;11.23;;;4.35;;
48795;SDS011;34607;48.520;-1.330;2023-09-19T12:51:48;9.48;;;3.88;;
48795;SDS011;34607;48.520;-1.330;2023-09-19T12:54:16;9.00;;;3.45;;
48795;SDS011;34607;48.520;-1.330;2023-09-19T12:56:43;13.73;;;4.00;;
48795;SDS011;34607;48.520;-1.330;2023-09-19T12:59:13;11.70;;;3.67;;
48795;SDS011;34607;48.520;-1.330;2023-09-19T13:01:43;7.93;;;3.78;;
48795;SDS011;34607;48.520;-1.330;2023-09-19T13:04:12;11.02;;;3.28;;
48795;SDS011;34607;48.520;-1.330;2023-09-19T13:06:43;10.98;;;3.67;;
48795;SDS011;34607;48.520;-1.330;2023-09-19T13:09:14;10.93;;;4.35;;
48795;SDS011;34607;48.520;-1.330;2023-09-19T13:11:41;14.20;;;4.05;;
48795;SDS011;34607;48.520;-1.330;2023-09-19T13:14:16;13.60;;;4.00;;
48795;SDS011;34607;48.520;-1.330;2023-09-19T13:16:59;9.48;;;4.40;;
48795;SDS011;34607;48.520;-1.330;2023-09-19T13:19:40;9.98;;;4.07;;
48795;SDS011;34607;48.520;-1.330;2023-09-19T13:25:05;10.82;;;3.97;;
48795;SDS011;34607;48.520;-1.330;2023-09-19T13:27:37;10.98;;;4.95;;
48795;SDS011;34607;48.520;-1.330;2023-09-19T13:30:04;13.85;;;4.22;;
48795;SDS011;34607;48.520;-1.330;2023-09-19T13:32:34;13.88;;;3.90;;
48795;SDS011;34607;48.520;-1.330;2023-09-19T13:35:01;10.98;;;4.20;;
48795;SDS011;34607;48.520;-1.330;2023-09-19T13:37:28;11.60;;;4.43;;
48795;SDS011;34607;48.520;-1.330;2023-09-19T13:39:55;9.68;;;4.40;;
48795;SDS011;34607;48.520;-1.330;2023-09-19T13:42:23;9.65;;;3.75;;
48795;SDS011;34607;48.520;-1.330;2023-09-19T13:44:55;13.95;;;4.22;;
48795;SDS011;34607;48.520;-1.330;2023-09-19T13:47:22;11.45;;;4.40;;
48795;SDS011;34607;48.520;-1.330;2023-09-19T13:49:53;12.95;;;3.88;;
48795;SDS011;34607;48.520;-1.330;2023-09-19T13:52:20;9.20;;;3.60;;
48795;SDS011;34607;48.520;-1.330;2023-09-19T13:54:48;9.77;;;4.00;;
48795;SDS011;34607;48.520;-1.330;2023-09-19T13:57:16;12.73;;;5.10;;
48795;SDS011;34607;48.520;-1.330;2023-09-19T13:59:43;13.93;;;4.40;;
48795;SDS011;34607;48.520;-1.330;2023-09-19T14:02:10;7.40;;;3.90;;
48795;SDS011;34607;48.520;-1.330;2023-09-19T14:04:39;18.52;;;5.28;;
48795;SDS011;34607;48.520;-1.330;2023-09-19T14:07:07;14.07;;;4.78;;
48795;SDS011;34607;48.520;-1.330;2023-09-19T14:09:36;13.73;;;4.43;;
48795;SDS011;34607;48.520;-1.330;2023-09-19T14:12:03;12.27;;;4.47;;
48795;SDS011;34607;48.520;-1.330;2023-09-19T14:14:30;10.60;;;5.13;;
48795;SDS011;34607;48.520;-1.330;2023-09-19T14:16:57;12.95;;;4.13;;
48795;SDS011;34607;48.520;-1.330;2023-09-19T14:19:26;13.23;;;4.40;;
48795;SDS011;34607;48.520;-1.330;2023-09-19T14:21:53;12.77;;;4.65;;
48795;SDS011;34607;48.520;-1.330;2023-09-19T14:24:22;12.57;;;5.85;;
48795;SDS011;34607;48.520;-1.330;2023-09-19T14:26:49;13.52;;;4.57;;
48795;SDS011;34607;48.520;-1.330;2023-09-19T14:29:16;12.48;;;4.18;;
48795;SDS011;34607;48.520;-1.330;2023-09-19T14:31:44;12.02;;;5.15;;
48795;SDS011;34607;48.520;-1.330;2023-09-19T14:34:12;11.80;;;4.25;;
48795;SDS011;34607;48.520;-1.330;2023-09-19T14:36:40;9.70;;;4.50;;
48795;SDS011;34607;48.520;-1.330;2023-09-19T14:39:07;15.40;;;4.25;;
48795;SDS011;34607;48.520;-1.330;2023-09-19T14:41:36;16.27;;;5.18;;
48795;SDS011;34607;48.520;-1.330;2023-09-19T14:44:03;11.60;;;4.28;;
48795;SDS011;34607;48.520;-1.330;2023-09-19T14:46:30;10.75;;;3.72;;
48795;SDS011;34607;48.520;-1.330;2023-09-19T14:48:58;11.00;;;4.75;;
48795;SDS011;34607;48.520;-1.330;2023-09-19T14:51:25;15.00;;;5.20;;
48795;SDS011;34607;48.520;-1.330;2023-09-19T14:53:52;11.27;;;4.35;;
48795;SDS011;34607;48.520;-1.330;2023-09-19T14:56:20;10.77;;;3.97;;
48795;SDS011;34607;48.520;-1.330;2023-09-19T14:58:50;12.43;;;4.60;;
48795;SDS011;34607;48.520;-1.330;2023-09-19T15:01:17;10.00;;;4.00;;
48795;SDS011;34607;48.520;-1.330;2023-09-19T15:03:44;15.13;;;5.03;;
48795;SDS011;34607;48.520;-1.330;2023-09-19T15:06:13;11.45;;;3.95;;
48795;SDS011;34607;48.520;-1.330;2023-09-19T15:08:43;10.90;;;4.43;;
48795;SDS011;34607;48.520;-1.330;2023-09-19T15:11:13;11.65;;;4.85;;
48795;SDS011;34607;48.520;-1.330;2023-09-19T15:13:42;12.02;;;4.88;;
48795;SDS011;34607;48.520;-1.330;2023-09-19T15:16:12;13.88;;;4.68;;
48795;SDS011;34607;48.520;-1.330;2023-09-19T15:18:40;15.43;;;5.35;;
48795;SDS011;34607;48.520;-1.330;2023-09-19T15:21:09;7.93;;;4.10;;
48795;SDS011;34607;48.520;-1.330;2023-09-19T15:23:38;12.82;;;5.03;;
48795;SDS011;34607;48.520;-1.330;2023-09-19T15:26:06;13.80;;;4.82;;
48795;SDS011;34607;48.520;-1.330;2023-09-19T15:28:34;8.50;;;3.70;;
48795;SDS011;34607;48.520;-1.330;2023-09-19T15:31:02;10.23;;;5.60;;
48795;SDS011;34607;48.520;-1.330;2023-09-19T15:33:31;9.52;;;4.47;;
48795;SDS011;34607;48.520;-1.330;2023-09-19T15:36:03;10.77;;;4.38;;
48795;SDS011;34607;48.520;-1.330;2023-09-19T15:38:30;11.07;;;4.70;;
48795;SDS011;34607;48.520;-1.330;2023-09-19T15:40:58;11.65;;;5.25;;
48795;SDS011;34607;48.520;-1.330;2023-09-19T15:43:25;14.82;;;5.03;;
48795;SDS011;34607;48.520;-1.330;2023-09-19T15:45:52;14.55;;;4.88;;
48795;SDS011;34607;48.520;-1.330;2023-09-19T15:48:19;12.73;;;4.35;;
48795;SDS011;34607;48.520;-1.330;2023-09-19T15:50:49;12.18;;;4.45;;
48795;SDS011;34607;48.520;-1.330;2023-09-19T15:53:16;13.00;;;4.90;;
48795;SDS011;34607;48.520;-1.330;2023-09-19T15:55:43;8.95;;;5.07;;
48795;SDS011;34607;48.520;-1.330;2023-09-19T15:58:10;12.63;;;4.68;;
48795;SDS011;34607;48.520;-1.330;2023-09-19T16:00:39;11.55;;;5.18;;
48795;SDS011;34607;48.520;-1.330;2023-09-19T16:03:07;12.93;;;5.10;;
48795;SDS011;34607;48.520;-1.330;2023-09-19T16:05:35;11.93;;;4.88;;
48795;SDS011;34607;48.520;-1.330;2023-09-19T16:08:06;13.48;;;4.63;;
48795;SDS011;34607;48.520;-1.330;2023-09-19T16:10:36;11.68;;;4.95;;
48795;SDS011;34607;48.520;-1.330;2023-09-19T16:13:03;15.18;;;5.22;;
48795;SDS011;34607;48.520;-1.330;2023-09-19T16:15:31;12.02;;;6.03;;
48795;SDS011;34607;48.520;-1.330;2023-09-19T16:17:59;12.23;;;5.10;;
48795;SDS011;34607;48.520;-1.330;2023-09-19T16:20:28;11.63;;;4.45;;
48795;SDS011;34607;48.520;-1.330;2023-09-19T16:22:58;12.20;;;5.05;;
48795;SDS011;34607;48.520;-1.330;2023-09-19T16:25:28;12.35;;;5.88;;
48795;SDS011;34607;48.520;-1.330;2023-09-19T16:27:55;13.93;;;5.93;;
48795;SDS011;34607;48.520;-1.330;2023-09-19T16:30:22;13.88;;;5.28;;
48795;SDS011;34607;48.520;-1.330;2023-09-19T16:32:49;16.67;;;5.43;;
48795;SDS011;34607;48.520;-1.330;2023-09-19T16:35:16;14.57;;;5.25;;
48795;SDS011;34607;48.520;-1.330;2023-09-19T16:37:43;13.25;;;4.95;;
48795;SDS011;34607;48.520;-1.330;2023-09-19T16:40:11;12.10;;;5.57;;
48795;SDS011;34607;48.520;-1.330;2023-09-19T16:42:39;11.88;;;6.05;;
48795;SDS011;34607;48.520;-1.330;2023-09-19T16:45:07;11.23;;;4.95;;
48795;SDS011;34607;48.520;-1.330;2023-09-19T16:47:35;12.35;;;4.60;;
48795;SDS011;34607;48.520;-1.330;2023-09-19T16:50:02;18.90;;;6.47;;
48795;SDS011;34607;48.520;-1.330;2023-09-19T16:52:31;14.05;;;5.60;;
48795;SDS011;34607;48.520;-1.330;2023-09-19T16:54:58;16.17;;;6.00;;
48795;SDS011;34607;48.520;-1.330;2023-09-19T16:57:25;11.85;;;4.93;;
48795;SDS011;34607;48.520;-1.330;2023-09-19T16:59:53;18.17;;;6.75;;
48795;SDS011;34607;48.520;-1.330;2023-09-19T17:02:21;12.70;;;5.40;;
48795;SDS011;34607;48.520;-1.330;2023-09-19T17:04:48;15.90;;;5.78;;
48795;SDS011;34607;48.520;-1.330;2023-09-19T17:07:15;15.15;;;6.32;;
48795;SDS011;34607;48.520;-1.330;2023-09-19T17:09:42;18.45;;;6.57;;
48795;SDS011;34607;48.520;-1.330;2023-09-19T17:12:09;13.05;;;5.68;;
48795;SDS011;34607;48.520;-1.330;2023-09-19T17:14:38;14.73;;;5.45;;
48795;SDS011;34607;48.520;-1.330;2023-09-19T17:17:07;17.23;;;6.13;;
48795;SDS011;34607;48.520;-1.330;2023-09-19T17:19:34;14.07;;;5.47;;
48795;SDS011;34607;48.520;-1.330;2023-09-19T17:22:01;12.43;;;5.43;;
48795;SDS011;34607;48.520;-1.330;2023-09-19T17:24:28;15.10;;;6.85;;
48795;SDS011;34607;48.520;-1.330;2023-09-19T17:26:55;25.38;;;6.35;;
48795;SDS011;34607;48.520;-1.330;2023-09-19T17:29:22;17.48;;;6.45;;
48795;SDS011;34607;48.520;-1.330;2023-09-19T17:31:49;11.75;;;4.95;;
48795;SDS011;34607;48.520;-1.330;2023-09-19T17:34:18;15.98;;;6.40;;
48795;SDS011;34607;48.520;-1.330;2023-09-19T17:36:45;14.25;;;6.53;;
48795;SDS011;34607;48.520;-1.330;2023-09-19T17:39:13;17.90;;;7.03;;
48795;SDS011;34607;48.520;-1.330;2023-09-19T17:41:41;19.38;;;7.22;;
48795;SDS011;34607;48.520;-1.330;2023-09-19T17:44:08;17.80;;;6.22;;
48795;SDS011;34607;48.520;-1.330;2023-09-19T17:46:37;17.75;;;6.20;;
48795;SDS011;34607;48.520;-1.330;2023-09-19T17:49:04;14.93;;;6.03;;
48795;SDS011;34607;48.520;-1.330;2023-09-19T17:51:32;15.88;;;5.90;;
48795;SDS011;34607;48.520;-1.330;2023-09-19T17:53:59;18.63;;;7.25;;
48795;SDS011;34607;48.520;-1.330;2023-09-19T17:56:27;16.83;;;6.43;;
48795;SDS011;34607;48.520;-1.330;2023-09-19T17:58:55;14.35;;;5.65;;
48795;SDS011;34607;48.520;-1.330;2023-09-19T18:01:24;15.10;;;6.18;;
48795;SDS011;34607;48.520;-1.330;2023-09-19T18:03:52;13.80;;;6.38;;
48795;SDS011;34607;48.520;-1.330;2023-09-19T18:06:22;12.55;;;5.35;;
48795;SDS011;34607;48.520;-1.330;2023-09-19T18:08:51;12.77;;;5.78;;
48795;SDS011;34607;48.520;-1.330;2023-09-19T18:11:18;15.32;;;5.40;;
48795;SDS011;34607;48.520;-1.330;2023-09-19T18:13:50;12.20;;;5.70;;
48795;SDS011;34607;48.520;-1.330;2023-09-19T18:16:19;15.95;;;6.32;;
48795;SDS011;34607;48.520;-1.330;2023-09-19T18:18:49;16.27;;;5.57;;
48795;SDS011;34607;48.520;-1.330;2023-09-19T18:21:18;14.95;;;6.07;;
48795;SDS011;34607;48.520;-1.330;2023-09-19T18:23:45;13.98;;;5.18;;
48795;SDS011;34607;48.520;-1.330;2023-09-19T18:26:14;13.60;;;6.20;;
48795;SDS011;34607;48.520;-1.330;2023-09-19T18:28:41;16.08;;;5.75;;
48795;SDS011;34607;48.520;-1.330;2023-09-19T18:31:09;14.10;;;5.10;;
48795;SDS011;34607;48.520;-1.330;2023-09-19T18:33:36;15.43;;;6.05;;
48795;SDS011;34607;48.520;-1.330;2023-09-19T18:36:04;13.48;;;5.78;;
48795;SDS011;34607;48.520;-1.330;2023-09-19T18:38:32;13.27;;;5.22;;
48795;SDS011;34607;48.520;-1.330;2023-09-19T18:41:05;16.08;;;5.63;;
48795;SDS011;34607;48.520;-1.330;2023-09-19T18:43:34;14.50;;;6.05;;
48795;SDS011;34607;48.520;-1.330;2023-09-19T18:46:02;13.88;;;5.75;;
48795;SDS011;34607;48.520;-1.330;2023-09-19T18:48:34;15.93;;;5.88;;
48795;SDS011;34607;48.520;-1.330;2023-09-19T18:51:06;16.50;;;5.72;;
48795;SDS011;34607;48.520;-1.330;2023-09-19T18:53:33;15.50;;;5.60;;
48795;SDS011;34607;48.520;-1.330;2023-09-19T18:56:02;15.38;;;5.43;;
48795;SDS011;34607;48.520;-1.330;2023-09-19T18:58:30;15.18;;;5.38;;
48795;SDS011;34607;48.520;-1.330;2023-09-19T19:01:01;13.10;;;5.38;;
48795;SDS011;34607;48.520;-1.330;2023-09-19T19:03:29;15.20;;;5.15;;
48795;SDS011;34607;48.520;-1.330;2023-09-19T19:05:56;13.73;;;5.38;;
48795;SDS011;34607;48.520;-1.330;2023-09-19T19:08:24;9.30;;;4.80;;
48795;SDS011;34607;48.520;-1.330;2023-09-19T19:10:51;12.20;;;5.00;;
48795;SDS011;34607;48.520;-1.330;2023-09-19T19:13:18;13.38;;;4.95;;
48795;SDS011;34607;48.520;-1.330;2023-09-19T19:15:45;12.85;;;4.80;;
48795;SDS011;34607;48.520;-1.330;2023-09-19T19:18:14;15.52;;;4.93;;
48795;SDS011;34607;48.520;-1.330;2023-09-19T19:20:41;13.30;;;4.13;;
48795;SDS011;34607;48.520;-1.330;2023-09-19T19:23:08;14.25;;;5.43;;
48795;SDS011;34607;48.520;-1.330;2023-09-19T19:25:37;12.48;;;5.18;;
48795;SDS011;34607;48.520;-1.330;2023-09-19T19:28:13;14.20;;;6.18;;
48795;SDS011;34607;48.520;-1.330;2023-09-19T19:30:42;13.63;;;4.85;;
48795;SDS011;34607;48.520;-1.330;2023-09-19T19:33:10;13.02;;;4.80;;
48795;SDS011;34607;48.520;-1.330;2023-09-19T19:35:38;10.32;;;4.38;;
48795;SDS011;34607;48.520;-1.330;2023-09-19T19:38:07;11.13;;;3.92;;
48795;SDS011;34607;48.520;-1.330;2023-09-19T19:40:34;14.02;;;4.65;;
48795;SDS011;34607;48.520;-1.330;2023-09-19T19:43:01;11.80;;;4.30;;
48795;SDS011;34607;48.520;-1.330;2023-09-19T19:45:28;9.43;;;4.20;;
48795;SDS011;34607;48.520;-1.330;2023-09-19T19:47:59;11.45;;;4.57;;
48795;SDS011;34607;48.520;-1.330;2023-09-19T19:50:27;13.13;;;4.18;;
48795;SDS011;34607;48.520;-1.330;2023-09-19T19:52:56;12.20;;;5.15;;
48795;SDS011;34607;48.520;-1.330;2023-09-19T19:55:23;11.40;;;4.35;;
48795;SDS011;34607;48.520;-1.330;2023-09-19T19:57:52;10.27;;;4.55;;
48795;SDS011;34607;48.520;-1.330;2023-09-19T20:00:20;13.52;;;5.13;;
48795;SDS011;34607;48.520;-1.330;2023-09-19T20:02:48;10.55;;;4.20;;
48795;SDS011;34607;48.520;-1.330;2023-09-19T20:05:15;12.23;;;4.72;;
48795;SDS011;34607;48.520;-1.330;2023-09-19T20:07:42;13.77;;;5.03;;
48795;SDS011;34607;48.520;-1.330;2023-09-19T20:10:12;11.70;;;4.40;;
48795;SDS011;34607;48.520;-1.330;2023-09-19T20:12:41;9.70;;;4.28;;
48795;SDS011;34607;48.520;-1.330;2023-09-19T20:15:10;12.10;;;4.57;;
48795;SDS011;34607;48.520;-1.330;2023-09-19T20:17:38;14.07;;;4.93;;
48795;SDS011;34607;48.520;-1.330;2023-09-19T20:20:08;12.20;;;4.38;;
48795;SDS011;34607;48.520;-1.330;2023-09-19T20:22:40;11.10;;;4.30;;
48795;SDS011;34607;48.520;-1.330;2023-09-19T20:25:08;16.55;;;4.65;;
48795;SDS011;34607;48.520;-1.330;2023-09-19T20:27:38;12.55;;;4.30;;
48795;SDS011;34607;48.520;-1.330;2023-09-19T20:30:06;11.30;;;4.97;;
48795;SDS011;34607;48.520;-1.330;2023-09-19T20:32:34;18.67;;;6.07;;
48795;SDS011;34607;48.520;-1.330;2023-09-19T20:35:02;11.13;;;4.30;;
48795;SDS011;34607;48.520;-1.330;2023-09-19T20:37:30;11.73;;;3.88;;
48795;SDS011;34607;48.520;-1.330;2023-09-19T20:39:59;15.43;;;4.78;;
48795;SDS011;34607;48.520;-1.330;2023-09-19T20:42:26;8.82;;;4.70;;
48795;SDS011;34607;48.520;-1.330;2023-09-19T20:44:54;13.43;;;4.50;;
48795;SDS011;34607;48.520;-1.330;2023-09-19T20:47:22;16.33;;;4.60;;
48795;SDS011;34607;48.520;-1.330;2023-09-19T20:49:50;15.75;;;5.60;;
48795;SDS011;34607;48.520;-1.330;2023-09-19T20:52:16;13.95;;;4.88;;
48795;SDS011;34607;48.520;-1.330;2023-09-19T20:54:44;15.80;;;5.47;;
48795;SDS011;34607;48.520;-1.330;2023-09-19T20:57:12;15.43;;;5.18;;
48795;SDS011;34607;48.520;-1.330;2023-09-19T20:59:40;13.98;;;4.90;;
48795;SDS011;34607;48.520;-1.330;2023-09-19T21:02:08;12.18;;;4.65;;
48795;SDS011;34607;48.520;-1.330;2023-09-19T21:04:36;11.30;;;4.65;;
48795;SDS011;34607;48.520;-1.330;2023-09-19T21:07:04;14.43;;;5.70;;
48795;SDS011;34607;48.520;-1.330;2023-09-19T21:09:31;16.05;;;5.25;;
